sensor_id;sensor_type;location;lat;lon;timestamp;temperature;humidity
18373;DHT22;9313;51.27979100;4.44632000;2022-08-19T00:01:57;17.60;99.90
18373;DHT22;9313;51.27979100;4.44632000;2022-08-19T00:04:28;17.60;99.90
18373;DHT22;9313;51.27979100;4.44632000;2022-08-19T00:06:57;17.60;99.90
18373;DHT22;9313;51.27979100;4.44632000;2022-08-19T00:09:27;17.50;99.90
18373;DHT22;9313;51.27979100;4.44632000;2022-08-19T00:11:56;17.50;99.90
18373;DHT22;9313;51.27979100;4.44632000;2022-08-19T00:14:28;17.50;99.90
18373;DHT22;9313;51.27979100;4.44632000;2022-08-19T00:17:00;17.50;99.90
18373;DHT22;9313;51.27979100;4.44632000;2022-08-19T00:19:26;17.50;99.90
18373;DHT22;9313;51.27979100;4.44632000;2022-08-19T00:21:53;17.50;99.90
18373;DHT22;9313;51.27979100;4.44632000;2022-08-19T00:24:20;17.50;99.90
18373;DHT22;9313;51.27979100;4.44632000;2022-08-19T00:26:49;17.40;99.90
18373;DHT22;9313;51.27979100;4.44632000;2022-08-19T00:29:17;17.40;99.90
18373;DHT22;9313;51.27979100;4.44632000;2022-08-19T00:31:46;17.40;99.90
18373;DHT22;9313;51.27979100;4.44632000;2022-08-19T00:34:14;17.40;99.90
18373;DHT22;9313;51.27979100;4.44632000;2022-08-19T00:36:42;17.40;99.90
18373;DHT22;9313;51.27979100;4.44632000;2022-08-19T00:39:11;17.30;99.90
18373;DHT22;9313;51.27979100;4.44632000;2022-08-19T00:41:41;17.30;99.90
18373;DHT22;9313;51.27979100;4.44632000;2022-08-19T00:46:42;17.30;99.90
18373;DHT22;9313;51.27979100;4.44632000;2022-08-19T00:49:34;17.30;99.90
18373;DHT22;9313;51.27979100;4.44632000;2022-08-19T00:52:15;17.30;99.90
18373;DHT22;9313;51.27979100;4.44632000;2022-08-19T00:54:43;17.30;99.90
18373;DHT22;9313;51.27979100;4.44632000;2022-08-19T00:57:24;17.30;99.90
18373;DHT22;9313;51.27979100;4.44632000;2022-08-19T00:59:56;17.20;99.90
18373;DHT22;9313;51.27979100;4.44632000;2022-08-19T01:02:24;17.20;99.90
18373;DHT22;9313;51.27979100;4.44632000;2022-08-19T01:04:51;17.20;99.90
18373;DHT22;9313;51.27979100;4.44632000;2022-08-19T01:07:22;17.20;99.90
18373;DHT22;9313;51.27979100;4.44632000;2022-08-19T01:09:47;17.20;99.90
18373;DHT22;9313;51.27979100;4.44632000;2022-08-19T01:12:16;17.10;99.90
18373;DHT22;9313;51.27979100;4.44632000;2022-08-19T01:14:46;17.10;99.90
18373;DHT22;9313;51.27979100;4.44632000;2022-08-19T01:17:16;17.00;99.90
18373;DHT22;9313;51.27979100;4.44632000;2022-08-19T01:19:43;17.10;99.90
18373;DHT22;9313;51.27979100;4.44632000;2022-08-19T01:25:08;17.00;99.90
18373;DHT22;9313;51.27979100;4.44632000;2022-08-19T01:27:39;17.00;99.90
18373;DHT22;9313;51.27979100;4.44632000;2022-08-19T01:30:13;17.00;99.90
18373;DHT22;9313;51.27979100;4.44632000;2022-08-19T01:32:42;17.00;99.90
18373;DHT22;9313;51.27979100;4.44632000;2022-08-19T01:35:12;17.00;99.90
18373;DHT22;9313;51.27979100;4.44632000;2022-08-19T01:37:47;17.10;99.90
18373;DHT22;9313;51.27979100;4.44632000;2022-08-19T01:40:18;17.20;99.90
18373;DHT22;9313;51.27979100;4.44632000;2022-08-19T01:42:51;17.30;99.90
18373;DHT22;9313;51.27979100;4.44632000;2022-08-19T01:45:18;17.50;99.90
18373;DHT22;9313;51.27979100;4.44632000;2022-08-19T01:47:44;17.50;99.90
18373;DHT22;9313;51.27979100;4.44632000;2022-08-19T01:50:13;17.50;99.90
18373;DHT22;9313;51.27979100;4.44632000;2022-08-19T01:52:43;17.50;99.90
18373;DHT22;9313;51.27979100;4.44632000;2022-08-19T01:55:17;17.60;99.90
18373;DHT22;9313;51.27979100;4.44632000;2022-08-19T01:57:51;17.60;99.90
18373;DHT22;9313;51.27979100;4.44632000;2022-08-19T02:00:22;17.60;99.90
18373;DHT22;9313;51.27979100;4.44632000;2022-08-19T02:02:51;17.60;99.90
18373;DHT22;9313;51.27979100;4.44632000;2022-08-19T02:05:18;17.60;99.90
18373;DHT22;9313;51.27979100;4.44632000;2022-08-19T02:07:49;17.60;99.90
18373;DHT22;9313;51.27979100;4.44632000;2022-08-19T02:10:20;17.60;99.90
18373;DHT22;9313;51.27979100;4.44632000;2022-08-19T02:12:52;17.60;99.90
18373;DHT22;9313;51.27979100;4.44632000;2022-08-19T02:15:19;17.60;99.90
18373;DHT22;9313;51.27979100;4.44632000;2022-08-19T02:17:47;17.60;99.90
18373;DHT22;9313;51.27979100;4.44632000;2022-08-19T02:20:16;17.60;99.90
18373;DHT22;9313;51.27979100;4.44632000;2022-08-19T02:22:42;17.50;99.90
18373;DHT22;9313;51.27979100;4.44632000;2022-08-19T02:25:10;17.50;99.90
18373;DHT22;9313;51.27979100;4.44632000;2022-08-19T02:27:42;17.50;99.90
18373;DHT22;9313;51.27979100;4.44632000;2022-08-19T02:30:11;17.50;99.90
18373;DHT22;9313;51.27979100;4.44632000;2022-08-19T02:32:41;17.50;99.90
18373;DHT22;9313;51.27979100;4.44632000;2022-08-19T02:35:10;17.40;99.90
18373;DHT22;9313;51.27979100;4.44632000;2022-08-19T02:37:35;17.50;99.90
18373;DHT22;9313;51.27979100;4.44632000;2022-08-19T02:40:20;17.40;99.90
18373;DHT22;9313;51.27979100;4.44632000;2022-08-19T02:42:49;17.40;99.90
18373;DHT22;9313;51.27979100;4.44632000;2022-08-19T02:45:16;17.40;99.90
18373;DHT22;9313;51.27979100;4.44632000;2022-08-19T02:47:42;17.40;99.90
18373;DHT22;9313;51.27979100;4.44632000;2022-08-19T02:50:09;17.40;99.90
18373;DHT22;9313;51.27979100;4.44632000;2022-08-19T02:52:35;17.40;99.90
18373;DHT22;9313;51.27979100;4.44632000;2022-08-19T02:55:05;17.30;99.90
18373;DHT22;9313;51.27979100;4.44632000;2022-08-19T02:57:36;17.30;99.90
18373;DHT22;9313;51.27979100;4.44632000;2022-08-19T03:00:07;17.30;99.90
18373;DHT22;9313;51.27979100;4.44632000;2022-08-19T03:02:39;17.30;99.90
18373;DHT22;9313;51.27979100;4.44632000;2022-08-19T03:05:10;17.30;99.90
18373;DHT22;9313;51.27979100;4.44632000;2022-08-19T03:07:37;17.20;99.90
18373;DHT22;9313;51.27979100;4.44632000;2022-08-19T03:10:06;17.20;99.90
18373;DHT22;9313;51.27979100;4.44632000;2022-08-19T03:12:36;17.20;99.90
18373;DHT22;9313;51.27979100;4.44632000;2022-08-19T03:15:06;17.20;99.90
18373;DHT22;9313;51.27979100;4.44632000;2022-08-19T03:17:37;17.20;99.90
18373;DHT22;9313;51.27979100;4.44632000;2022-08-19T03:20:04;17.20;99.90
18373;DHT22;9313;51.27979100;4.44632000;2022-08-19T03:22:35;17.20;99.90
18373;DHT22;9313;51.27979100;4.44632000;2022-08-19T03:25:03;17.20;99.90
18373;DHT22;9313;51.27979100;4.44632000;2022-08-19T03:27:33;17.20;99.90
18373;DHT22;9313;51.27979100;4.44632000;2022-08-19T03:29:59;17.20;99.90
18373;DHT22;9313;51.27979100;4.44632000;2022-08-19T03:32:27;17.20;99.90
18373;DHT22;9313;51.27979100;4.44632000;2022-08-19T03:34:52;17.20;99.90
18373;DHT22;9313;51.27979100;4.44632000;2022-08-19T03:37:21;17.20;99.90
18373;DHT22;9313;51.27979100;4.44632000;2022-08-19T03:39:47;17.10;99.90
18373;DHT22;9313;51.27979100;4.44632000;2022-08-19T03:42:15;17.10;99.90
18373;DHT22;9313;51.27979100;4.44632000;2022-08-19T03:44:42;17.10;99.90
18373;DHT22;9313;51.27979100;4.44632000;2022-08-19T03:47:10;17.10;99.90
18373;DHT22;9313;51.27979100;4.44632000;2022-08-19T03:49:46;17.10;99.90
18373;DHT22;9313;51.27979100;4.44632000;2022-08-19T03:52:12;17.00;99.90
18373;DHT22;9313;51.27979100;4.44632000;2022-08-19T03:54:41;17.00;99.90
18373;DHT22;9313;51.27979100;4.44632000;2022-08-19T03:57:09;17.00;99.90
18373;DHT22;9313;51.27979100;4.44632000;2022-08-19T03:59:37;17.00;99.90
18373;DHT22;9313;51.27979100;4.44632000;2022-08-19T04:02:12;17.00;99.90
18373;DHT22;9313;51.27979100;4.44632000;2022-08-19T04:04:40;17.00;99.90
18373;DHT22;9313;51.27979100;4.44632000;2022-08-19T04:07:06;17.00;99.90
18373;DHT22;9313;51.27979100;4.44632000;2022-08-19T04:09:34;17.00;99.90
18373;DHT22;9313;51.27979100;4.44632000;2022-08-19T04:12:02;17.00;99.90
18373;DHT22;9313;51.27979100;4.44632000;2022-08-19T04:14:33;17.10;99.90
18373;DHT22;9313;51.27979100;4.44632000;2022-08-19T04:17:03;17.20;99.90
18373;DHT22;9313;51.27979100;4.44632000;2022-08-19T04:19:31;17.20;99.90
18373;DHT22;9313;51.27979100;4.44632000;2022-08-19T04:21:59;17.20;99.90
18373;DHT22;9313;51.27979100;4.44632000;2022-08-19T04:24:27;17.20;99.90
18373;DHT22;9313;51.27979100;4.44632000;2022-08-19T04:26:53;17.10;99.90
18373;DHT22;9313;51.27979100;4.44632000;2022-08-19T04:29:24;17.10;99.90
18373;DHT22;9313;51.27979100;4.44632000;2022-08-19T04:31:54;17.10;99.90
18373;DHT22;9313;51.27979100;4.44632000;2022-08-19T04:34:22;17.10;99.90
18373;DHT22;9313;51.27979100;4.44632000;2022-08-19T04:36:50;17.10;99.90
18373;DHT22;9313;51.27979100;4.44632000;2022-08-19T04:39:28;17.00;99.90
18373;DHT22;9313;51.27979100;4.44632000;2022-08-19T04:42:17;17.00;99.90
18373;DHT22;9313;51.27979100;4.44632000;2022-08-19T04:45:09;17.00;99.90
18373;DHT22;9313;51.27979100;4.44632000;2022-08-19T04:47:37;17.00;99.90
18373;DHT22;9313;51.27979100;4.44632000;2022-08-19T04:50:06;17.00;99.90
18373;DHT22;9313;51.27979100;4.44632000;2022-08-19T04:52:34;17.00;99.90
18373;DHT22;9313;51.27979100;4.44632000;2022-08-19T04:55:03;17.00;99.90
18373;DHT22;9313;51.27979100;4.44632000;2022-08-19T04:57:29;17.00;99.90
18373;DHT22;9313;51.27979100;4.44632000;2022-08-19T04:59:56;17.00;99.90
18373;DHT22;9313;51.27979100;4.44632000;2022-08-19T05:02:22;17.00;99.90
18373;DHT22;9313;51.27979100;4.44632000;2022-08-19T05:04:57;17.00;99.90
18373;DHT22;9313;51.27979100;4.44632000;2022-08-19T05:07:24;17.00;99.90
18373;DHT22;9313;51.27979100;4.44632000;2022-08-19T05:10:04;17.00;99.90
18373;DHT22;9313;51.27979100;4.44632000;2022-08-19T05:12:30;17.00;99.90
18373;DHT22;9313;51.27979100;4.44632000;2022-08-19T05:14:58;17.00;99.90
18373;DHT22;9313;51.27979100;4.44632000;2022-08-19T05:17:25;17.10;99.90
18373;DHT22;9313;51.27979100;4.44632000;2022-08-19T05:19:55;17.10;99.90
18373;DHT22;9313;51.27979100;4.44632000;2022-08-19T05:22:44;17.10;99.90
18373;DHT22;9313;51.27979100;4.44632000;2022-08-19T05:25:14;17.10;99.90
18373;DHT22;9313;51.27979100;4.44632000;2022-08-19T05:27:43;17.10;99.90
18373;DHT22;9313;51.27979100;4.44632000;2022-08-19T05:30:09;17.10;99.90
18373;DHT22;9313;51.27979100;4.44632000;2022-08-19T05:32:38;17.20;99.90
18373;DHT22;9313;51.27979100;4.44632000;2022-08-19T05:35:07;17.20;99.90
18373;DHT22;9313;51.27979100;4.44632000;2022-08-19T05:37:37;17.20;99.90
18373;DHT22;9313;51.27979100;4.44632000;2022-08-19T05:40:06;17.30;99.90
18373;DHT22;9313;51.27979100;4.44632000;2022-08-19T05:42:32;17.30;99.90
18373;DHT22;9313;51.27979100;4.44632000;2022-08-19T05:45:04;17.40;99.90
18373;DHT22;9313;51.27979100;4.44632000;2022-08-19T05:47:30;17.50;99.90
18373;DHT22;9313;51.27979100;4.44632000;2022-08-19T05:49:57;17.50;99.90
18373;DHT22;9313;51.27979100;4.44632000;2022-08-19T05:52:25;17.60;99.90
18373;DHT22;9313;51.27979100;4.44632000;2022-08-19T05:54:57;17.60;99.90
18373;DHT22;9313;51.27979100;4.44632000;2022-08-19T05:57:26;17.70;99.90
18373;DHT22;9313;51.27979100;4.44632000;2022-08-19T05:59:56;17.70;99.90
18373;DHT22;9313;51.27979100;4.44632000;2022-08-19T06:02:23;17.80;99.90
18373;DHT22;9313;51.27979100;4.44632000;2022-08-19T06:04:51;17.80;99.90
18373;DHT22;9313;51.27979100;4.44632000;2022-08-19T06:07:16;17.90;99.90
18373;DHT22;9313;51.27979100;4.44632000;2022-08-19T06:09:44;17.90;99.90
18373;DHT22;9313;51.27979100;4.44632000;2022-08-19T06:12:10;17.90;99.90
18373;DHT22;9313;51.27979100;4.44632000;2022-08-19T06:14:39;18.00;99.90
18373;DHT22;9313;51.27979100;4.44632000;2022-08-19T06:17:07;18.10;99.90
18373;DHT22;9313;51.27979100;4.44632000;2022-08-19T06:19:36;18.20;99.90
18373;DHT22;9313;51.27979100;4.44632000;2022-08-19T06:22:06;18.40;99.90
18373;DHT22;9313;51.27979100;4.44632000;2022-08-19T06:24:35;18.60;99.90
18373;DHT22;9313;51.27979100;4.44632000;2022-08-19T06:27:02;18.70;99.90
18373;DHT22;9313;51.27979100;4.44632000;2022-08-19T06:29:29;18.90;99.90
18373;DHT22;9313;51.27979100;4.44632000;2022-08-19T06:32:00;19.00;99.90
18373;DHT22;9313;51.27979100;4.44632000;2022-08-19T06:34:30;19.10;99.90
18373;DHT22;9313;51.27979100;4.44632000;2022-08-19T06:36:58;19.20;99.90
18373;DHT22;9313;51.27979100;4.44632000;2022-08-19T06:39:31;19.30;99.90
18373;DHT22;9313;51.27979100;4.44632000;2022-08-19T06:42:00;19.30;99.90
18373;DHT22;9313;51.27979100;4.44632000;2022-08-19T06:44:33;19.40;99.90
18373;DHT22;9313;51.27979100;4.44632000;2022-08-19T06:47:02;19.50;99.90
18373;DHT22;9313;51.27979100;4.44632000;2022-08-19T06:49:32;19.50;99.90
18373;DHT22;9313;51.27979100;4.44632000;2022-08-19T06:52:01;19.60;99.90
18373;DHT22;9313;51.27979100;4.44632000;2022-08-19T06:54:30;19.70;99.90
18373;DHT22;9313;51.27979100;4.44632000;2022-08-19T06:56:58;19.80;99.90
18373;DHT22;9313;51.27979100;4.44632000;2022-08-19T06:59:31;19.90;99.90
18373;DHT22;9313;51.27979100;4.44632000;2022-08-19T07:02:04;19.90;99.90
18373;DHT22;9313;51.27979100;4.44632000;2022-08-19T07:04:38;19.90;99.90
18373;DHT22;9313;51.27979100;4.44632000;2022-08-19T07:07:13;20.00;99.90
18373;DHT22;9313;51.27979100;4.44632000;2022-08-19T07:09:46;19.90;99.90
18373;DHT22;9313;51.27979100;4.44632000;2022-08-19T07:12:14;19.90;99.90
18373;DHT22;9313;51.27979100;4.44632000;2022-08-19T07:14:41;19.90;99.90
18373;DHT22;9313;51.27979100;4.44632000;2022-08-19T07:17:10;20.00;99.90
18373;DHT22;9313;51.27979100;4.44632000;2022-08-19T07:19:38;20.20;99.90
18373;DHT22;9313;51.27979100;4.44632000;2022-08-19T07:22:09;20.40;99.90
18373;DHT22;9313;51.27979100;4.44632000;2022-08-19T07:24:37;20.70;99.90
18373;DHT22;9313;51.27979100;4.44632000;2022-08-19T07:27:05;20.90;99.90
18373;DHT22;9313;51.27979100;4.44632000;2022-08-19T07:29:33;20.90;99.90
18373;DHT22;9313;51.27979100;4.44632000;2022-08-19T07:32:04;21.00;99.90
18373;DHT22;9313;51.27979100;4.44632000;2022-08-19T07:34:32;21.10;99.90
18373;DHT22;9313;51.27979100;4.44632000;2022-08-19T07:37:06;21.20;99.90
18373;DHT22;9313;51.27979100;4.44632000;2022-08-19T07:39:34;21.30;99.90
18373;DHT22;9313;51.27979100;4.44632000;2022-08-19T07:42:07;21.40;99.90
18373;DHT22;9313;51.27979100;4.44632000;2022-08-19T07:44:34;21.50;99.90
18373;DHT22;9313;51.27979100;4.44632000;2022-08-19T07:47:00;21.60;99.90
18373;DHT22;9313;51.27979100;4.44632000;2022-08-19T07:49:27;21.70;99.90
18373;DHT22;9313;51.27979100;4.44632000;2022-08-19T07:52:05;21.70;99.90
18373;DHT22;9313;51.27979100;4.44632000;2022-08-19T07:54:34;21.70;99.90
18373;DHT22;9313;51.27979100;4.44632000;2022-08-19T07:57:01;21.90;99.90
18373;DHT22;9313;51.27979100;4.44632000;2022-08-19T07:59:27;22.00;99.90
18373;DHT22;9313;51.27979100;4.44632000;2022-08-19T08:01:56;22.10;99.90
18373;DHT22;9313;51.27979100;4.44632000;2022-08-19T08:04:24;22.10;99.90
18373;DHT22;9313;51.27979100;4.44632000;2022-08-19T08:07:09;22.00;99.90
18373;DHT22;9313;51.27979100;4.44632000;2022-08-19T08:09:56;21.90;99.90
18373;DHT22;9313;51.27979100;4.44632000;2022-08-19T08:12:33;21.80;99.90
18373;DHT22;9313;51.27979100;4.44632000;2022-08-19T08:15:06;21.70;99.90
18373;DHT22;9313;51.27979100;4.44632000;2022-08-19T08:17:38;21.60;99.90
18373;DHT22;9313;51.27979100;4.44632000;2022-08-19T08:20:05;21.70;99.90
18373;DHT22;9313;51.27979100;4.44632000;2022-08-19T08:22:35;21.80;99.90
18373;DHT22;9313;51.27979100;4.44632000;2022-08-19T08:25:25;21.80;99.90
18373;DHT22;9313;51.27979100;4.44632000;2022-08-19T08:27:54;21.90;99.90
18373;DHT22;9313;51.27979100;4.44632000;2022-08-19T08:30:24;22.00;99.90
18373;DHT22;9313;51.27979100;4.44632000;2022-08-19T08:32:53;22.00;99.90
18373;DHT22;9313;51.27979100;4.44632000;2022-08-19T08:35:23;22.00;99.90
18373;DHT22;9313;51.27979100;4.44632000;2022-08-19T08:37:53;22.00;99.90
18373;DHT22;9313;51.27979100;4.44632000;2022-08-19T08:40:43;22.10;99.90
18373;DHT22;9313;51.27979100;4.44632000;2022-08-19T08:46:04;22.70;99.90
18373;DHT22;9313;51.27979100;4.44632000;2022-08-19T08:51:09;22.90;99.90
18373;DHT22;9313;51.27979100;4.44632000;2022-08-19T08:53:41;22.90;99.90
18373;DHT22;9313;51.27979100;4.44632000;2022-08-19T08:56:11;22.80;99.90
18373;DHT22;9313;51.27979100;4.44632000;2022-08-19T09:01:24;22.60;99.90
18373;DHT22;9313;51.27979100;4.44632000;2022-08-19T09:03:50;22.40;99.90
18373;DHT22;9313;51.27979100;4.44632000;2022-08-19T09:09:50;22.20;99.90
18373;DHT22;9313;51.27979100;4.44632000;2022-08-19T09:12:22;22.10;99.90
18373;DHT22;9313;51.27979100;4.44632000;2022-08-19T09:15:07;22.00;99.90
18373;DHT22;9313;51.27979100;4.44632000;2022-08-19T09:17:37;21.90;99.90
18373;DHT22;9313;51.27979100;4.44632000;2022-08-19T09:22:35;21.90;99.90
18373;DHT22;9313;51.27979100;4.44632000;2022-08-19T09:25:04;21.90;99.90
18373;DHT22;9313;51.27979100;4.44632000;2022-08-19T09:27:32;21.90;99.90
18373;DHT22;9313;51.27979100;4.44632000;2022-08-19T09:30:00;22.00;99.90
18373;DHT22;9313;51.27979100;4.44632000;2022-08-19T09:32:27;21.90;99.90
18373;DHT22;9313;51.27979100;4.44632000;2022-08-19T09:34:56;21.90;99.90
18373;DHT22;9313;51.27979100;4.44632000;2022-08-19T09:37:26;21.80;99.90
18373;DHT22;9313;51.27979100;4.44632000;2022-08-19T09:39:55;21.60;99.90
18373;DHT22;9313;51.27979100;4.44632000;2022-08-19T09:42:23;21.60;99.90
18373;DHT22;9313;51.27979100;4.44632000;2022-08-19T09:44:49;21.60;99.90
18373;DHT22;9313;51.27979100;4.44632000;2022-08-19T09:47:18;21.50;99.90
18373;DHT22;9313;51.27979100;4.44632000;2022-08-19T09:49:47;21.30;99.90
18373;DHT22;9313;51.27979100;4.44632000;2022-08-19T09:52:14;21.20;99.90
18373;DHT22;9313;51.27979100;4.44632000;2022-08-19T09:54:44;21.00;99.90
18373;DHT22;9313;51.27979100;4.44632000;2022-08-19T09:57:13;20.90;99.90
18373;DHT22;9313;51.27979100;4.44632000;2022-08-19T09:59:40;20.80;99.90
18373;DHT22;9313;51.27979100;4.44632000;2022-08-19T10:02:06;20.70;99.90
18373;DHT22;9313;51.27979100;4.44632000;2022-08-19T10:04:31;20.60;99.90
18373;DHT22;9313;51.27979100;4.44632000;2022-08-19T10:07:17;20.60;99.90
18373;DHT22;9313;51.27979100;4.44632000;2022-08-19T10:09:46;20.50;99.90
18373;DHT22;9313;51.27979100;4.44632000;2022-08-19T10:12:12;20.40;99.90
18373;DHT22;9313;51.27979100;4.44632000;2022-08-19T10:14:43;20.40;99.90
18373;DHT22;9313;51.27979100;4.44632000;2022-08-19T10:17:11;20.50;99.90
18373;DHT22;9313;51.27979100;4.44632000;2022-08-19T10:19:42;20.60;99.90
18373;DHT22;9313;51.27979100;4.44632000;2022-08-19T10:22:08;20.70;99.90
18373;DHT22;9313;51.27979100;4.44632000;2022-08-19T10:24:41;20.80;99.90
18373;DHT22;9313;51.27979100;4.44632000;2022-08-19T10:27:09;20.90;99.90
18373;DHT22;9313;51.27979100;4.44632000;2022-08-19T10:29:36;21.00;99.90
18373;DHT22;9313;51.27979100;4.44632000;2022-08-19T10:32:06;21.10;99.90
18373;DHT22;9313;51.27979100;4.44632000;2022-08-19T10:34:35;21.20;99.90
18373;DHT22;9313;51.27979100;4.44632000;2022-08-19T10:37:02;21.40;99.90
18373;DHT22;9313;51.27979100;4.44632000;2022-08-19T10:39:37;21.50;99.90
18373;DHT22;9313;51.27979100;4.44632000;2022-08-19T10:42:05;21.70;99.90
18373;DHT22;9313;51.27979100;4.44632000;2022-08-19T10:44:35;21.80;99.90
18373;DHT22;9313;51.27979100;4.44632000;2022-08-19T10:47:05;21.90;99.90
18373;DHT22;9313;51.27979100;4.44632000;2022-08-19T10:49:31;22.10;99.90
18373;DHT22;9313;51.27979100;4.44632000;2022-08-19T10:51:59;22.30;99.90
18373;DHT22;9313;51.27979100;4.44632000;2022-08-19T10:54:44;22.40;99.90
18373;DHT22;9313;51.27979100;4.44632000;2022-08-19T10:57:31;22.40;99.90
18373;DHT22;9313;51.27979100;4.44632000;2022-08-19T10:59:58;22.50;99.90
18373;DHT22;9313;51.27979100;4.44632000;2022-08-19T11:02:26;22.60;99.90
18373;DHT22;9313;51.27979100;4.44632000;2022-08-19T11:04:54;22.60;99.90
18373;DHT22;9313;51.27979100;4.44632000;2022-08-19T11:07:21;22.50;99.90
18373;DHT22;9313;51.27979100;4.44632000;2022-08-19T11:09:47;22.40;99.90
18373;DHT22;9313;51.27979100;4.44632000;2022-08-19T11:12:13;22.30;99.90
18373;DHT22;9313;51.27979100;4.44632000;2022-08-19T11:14:39;22.30;99.90
18373;DHT22;9313;51.27979100;4.44632000;2022-08-19T11:17:10;22.30;99.90
18373;DHT22;9313;51.27979100;4.44632000;2022-08-19T11:19:42;22.30;99.90
18373;DHT22;9313;51.27979100;4.44632000;2022-08-19T11:22:09;22.30;99.90
18373;DHT22;9313;51.27979100;4.44632000;2022-08-19T11:24:38;22.20;99.90
18373;DHT22;9313;51.27979100;4.44632000;2022-08-19T11:27:07;22.30;99.90
18373;DHT22;9313;51.27979100;4.44632000;2022-08-19T11:29:38;22.50;99.90
18373;DHT22;9313;51.27979100;4.44632000;2022-08-19T11:32:09;22.60;99.90
18373;DHT22;9313;51.27979100;4.44632000;2022-08-19T11:34:36;22.60;99.90
18373;DHT22;9313;51.27979100;4.44632000;2022-08-19T11:37:09;22.70;99.90
18373;DHT22;9313;51.27979100;4.44632000;2022-08-19T11:39:38;22.90;99.90
18373;DHT22;9313;51.27979100;4.44632000;2022-08-19T11:42:05;22.90;99.90
18373;DHT22;9313;51.27979100;4.44632000;2022-08-19T11:44:51;22.90;99.90
18373;DHT22;9313;51.27979100;4.44632000;2022-08-19T11:47:21;23.00;99.90
18373;DHT22;9313;51.27979100;4.44632000;2022-08-19T11:49:49;23.10;99.90
18373;DHT22;9313;51.27979100;4.44632000;2022-08-19T11:52:17;23.40;99.90
18373;DHT22;9313;51.27979100;4.44632000;2022-08-19T11:54:44;23.90;99.90
18373;DHT22;9313;51.27979100;4.44632000;2022-08-19T11:57:11;24.30;99.90
18373;DHT22;9313;51.27979100;4.44632000;2022-08-19T11:59:38;24.60;99.90
18373;DHT22;9313;51.27979100;4.44632000;2022-08-19T12:02:09;24.80;99.90
18373;DHT22;9313;51.27979100;4.44632000;2022-08-19T12:04:41;25.30;99.90
18373;DHT22;9313;51.27979100;4.44632000;2022-08-19T12:07:09;25.50;99.90
18373;DHT22;9313;51.27979100;4.44632000;2022-08-19T12:09:35;25.70;99.90
18373;DHT22;9313;51.27979100;4.44632000;2022-08-19T12:12:01;25.70;99.90
18373;DHT22;9313;51.27979100;4.44632000;2022-08-19T12:14:30;25.90;99.90
18373;DHT22;9313;51.27979100;4.44632000;2022-08-19T12:16:58;26.00;99.90
18373;DHT22;9313;51.27979100;4.44632000;2022-08-19T12:19:26;26.30;99.90
18373;DHT22;9313;51.27979100;4.44632000;2022-08-19T12:21:52;26.50;99.90
18373;DHT22;9313;51.27979100;4.44632000;2022-08-19T12:24:23;26.50;99.90
18373;DHT22;9313;51.27979100;4.44632000;2022-08-19T12:26:50;26.80;99.90
18373;DHT22;9313;51.27979100;4.44632000;2022-08-19T12:29:21;27.00;99.90
18373;DHT22;9313;51.27979100;4.44632000;2022-08-19T12:31:49;27.40;99.90
18373;DHT22;9313;51.27979100;4.44632000;2022-08-19T12:34:17;27.90;99.90
18373;DHT22;9313;51.27979100;4.44632000;2022-08-19T12:36:45;28.20;99.90
18373;DHT22;9313;51.27979100;4.44632000;2022-08-19T12:39:11;28.40;99.90
18373;DHT22;9313;51.27979100;4.44632000;2022-08-19T12:41:40;28.20;99.90
18373;DHT22;9313;51.27979100;4.44632000;2022-08-19T12:44:06;28.20;99.90
18373;DHT22;9313;51.27979100;4.44632000;2022-08-19T12:46:37;28.00;99.90
18373;DHT22;9313;51.27979100;4.44632000;2022-08-19T12:49:08;27.80;99.90
18373;DHT22;9313;51.27979100;4.44632000;2022-08-19T12:51:38;27.70;99.90
18373;DHT22;9313;51.27979100;4.44632000;2022-08-19T12:54:04;27.50;99.90
18373;DHT22;9313;51.27979100;4.44632000;2022-08-19T12:56:30;27.30;99.90
18373;DHT22;9313;51.27979100;4.44632000;2022-08-19T12:58:56;27.40;99.90
18373;DHT22;9313;51.27979100;4.44632000;2022-08-19T13:01:24;27.50;99.90
18373;DHT22;9313;51.27979100;4.44632000;2022-08-19T13:03:55;27.70;99.90
18373;DHT22;9313;51.27979100;4.44632000;2022-08-19T13:06:23;28.00;99.90
18373;DHT22;9313;51.27979100;4.44632000;2022-08-19T13:08:51;27.90;99.90
18373;DHT22;9313;51.27979100;4.44632000;2022-08-19T13:11:21;28.00;99.90
18373;DHT22;9313;51.27979100;4.44632000;2022-08-19T13:13:51;28.10;99.90
18373;DHT22;9313;51.27979100;4.44632000;2022-08-19T13:16:18;28.40;99.90
18373;DHT22;9313;51.27979100;4.44632000;2022-08-19T13:18:48;28.70;99.90
18373;DHT22;9313;51.27979100;4.44632000;2022-08-19T13:21:17;28.50;99.90
18373;DHT22;9313;51.27979100;4.44632000;2022-08-19T13:23:47;28.50;99.90
18373;DHT22;9313;51.27979100;4.44632000;2022-08-19T13:26:15;28.60;99.90
18373;DHT22;9313;51.27979100;4.44632000;2022-08-19T13:28:41;28.60;99.90
18373;DHT22;9313;51.27979100;4.44632000;2022-08-19T13:31:31;28.70;99.90
18373;DHT22;9313;51.27979100;4.44632000;2022-08-19T13:34:17;28.90;99.90
18373;DHT22;9313;51.27979100;4.44632000;2022-08-19T13:36:43;29.10;99.90
18373;DHT22;9313;51.27979100;4.44632000;2022-08-19T13:39:10;29.00;99.90
18373;DHT22;9313;51.27979100;4.44632000;2022-08-19T13:41:44;28.70;99.90
18373;DHT22;9313;51.27979100;4.44632000;2022-08-19T13:44:15;28.60;99.90
18373;DHT22;9313;51.27979100;4.44632000;2022-08-19T13:46:45;28.70;99.90
18373;DHT22;9313;51.27979100;4.44632000;2022-08-19T13:49:12;28.80;99.90
18373;DHT22;9313;51.27979100;4.44632000;2022-08-19T13:51:43;29.20;99.90
18373;DHT22;9313;51.27979100;4.44632000;2022-08-19T13:54:10;29.60;99.90
18373;DHT22;9313;51.27979100;4.44632000;2022-08-19T13:56:45;29.80;99.90
18373;DHT22;9313;51.27979100;4.44632000;2022-08-19T13:59:14;29.60;99.90
18373;DHT22;9313;51.27979100;4.44632000;2022-08-19T14:01:40;29.60;99.90
18373;DHT22;9313;51.27979100;4.44632000;2022-08-19T14:04:09;29.60;99.90
18373;DHT22;9313;51.27979100;4.44632000;2022-08-19T14:06:37;29.60;99.90
18373;DHT22;9313;51.27979100;4.44632000;2022-08-19T14:09:08;29.40;99.90